sensor_id;sensor_type;location;lat;lon;timestamp;P1;durP1;ratioP1;P2;durP2;ratioP2
70908;SDS011;58554;52.006;5.926;2023-06-10T00:02:12;11.90;;;9.87;;
70908;SDS011;58554;52.006;5.926;2023-06-10T00:04:39;12.95;;;9.65;;
70908;SDS011;58554;52.006;5.926;2023-06-10T00:07:08;10.83;;;9.07;;
70908;SDS011;58554;52.006;5.926;2023-06-10T00:09:34;12.27;;;9.90;;
70908;SDS011;58554;52.006;5.926;2023-06-10T00:12:01;11.67;;;8.90;;
70908;SDS011;58554;52.006;5.926;2023-06-10T00:14:28;13.37;;;9.40;;
70908;SDS011;58554;52.006;5.926;2023-06-10T00:16:55;12.03;;;8.70;;
70908;SDS011;58554;52.006;5.926;2023-06-10T00:19:21;12.73;;;8.97;;
70908;SDS011;58554;52.006;5.926;2023-06-10T00:21:48;13.07;;;9.30;;
70908;SDS011;58554;52.006;5.926;2023-06-10T00:24:17;11.17;;;8.63;;
70908;SDS011;58554;52.006;5.926;2023-06-10T00:26:44;11.80;;;9.00;;
70908;SDS011;58554;52.006;5.926;2023-06-10T00:29:11;10.50;;;8.33;;
70908;SDS011;58554;52.006;5.926;2023-06-10T00:31:37;11.90;;;8.85;;
70908;SDS011;58554;52.006;5.926;2023-06-10T00:34:04;11.73;;;8.10;;
70908;SDS011;58554;52.006;5.926;2023-06-10T00:36:30;11.77;;;8.00;;
70908;SDS011;58554;52.006;5.926;2023-06-10T00:38:57;12.63;;;7.70;;
70908;SDS011;58554;52.006;5.926;2023-06-10T00:41:26;9.95;;;7.88;;
70908;SDS011;58554;52.006;5.926;2023-06-10T00:43:52;10.00;;;7.47;;
70908;SDS011;58554;52.006;5.926;2023-06-10T00:46:19;11.90;;;7.85;;
70908;SDS011;58554;52.006;5.926;2023-06-10T00:48:46;11.17;;;7.53;;
70908;SDS011;58554;52.006;5.926;2023-06-10T00:51:13;11.10;;;7.47;;
70908;SDS011;58554;52.006;5.926;2023-06-10T00:53:40;12.60;;;7.00;;
70908;SDS011;58554;52.006;5.926;2023-06-10T00:56:07;9.37;;;7.20;;
70908;SDS011;58554;52.006;5.926;2023-06-10T00:58:37;10.57;;;7.40;;
70908;SDS011;58554;52.006;5.926;2023-06-10T01:01:04;10.57;;;7.10;;
70908;SDS011;58554;52.006;5.926;2023-06-10T01:03:30;9.32;;;6.80;;
70908;SDS011;58554;52.006;5.926;2023-06-10T01:05:57;9.17;;;6.70;;
70908;SDS011;58554;52.006;5.926;2023-06-10T01:08:35;9.20;;;6.75;;
70908;SDS011;58554;52.006;5.926;2023-06-10T01:11:13;8.53;;;6.40;;
70908;SDS011;58554;52.006;5.926;2023-06-10T01:13:51;9.60;;;6.30;;
70908;SDS011;58554;52.006;5.926;2023-06-10T01:16:21;9.38;;;6.40;;
70908;SDS011;58554;52.006;5.926;2023-06-10T01:18:49;9.77;;;6.70;;
70908;SDS011;58554;52.006;5.926;2023-06-10T01:21:20;8.18;;;6.40;;
70908;SDS011;58554;52.006;5.926;2023-06-10T01:23:48;10.40;;;7.33;;
70908;SDS011;58554;52.006;5.926;2023-06-10T01:26:14;9.20;;;6.45;;
70908;SDS011;58554;52.006;5.926;2023-06-10T01:28:43;10.30;;;6.30;;
70908;SDS011;58554;52.006;5.926;2023-06-10T01:31:16;25.08;;;6.57;;
70908;SDS011;58554;52.006;5.926;2023-06-10T01:33:54;8.73;;;6.13;;
70908;SDS011;58554;52.006;5.926;2023-06-10T01:36:24;8.70;;;5.87;;
70908;SDS011;58554;52.006;5.926;2023-06-10T01:38:53;8.93;;;6.20;;
70908;SDS011;58554;52.006;5.926;2023-06-10T01:41:22;10.30;;;6.05;;
70908;SDS011;58554;52.006;5.926;2023-06-10T01:43:50;11.17;;;5.93;;
70908;SDS011;58554;52.006;5.926;2023-06-10T01:46:17;9.98;;;5.90;;
70908;SDS011;58554;52.006;5.926;2023-06-10T01:48:43;9.68;;;5.97;;
70908;SDS011;58554;52.006;5.926;2023-06-10T01:51:10;9.10;;;5.87;;
70908;SDS011;58554;52.006;5.926;2023-06-10T01:53:39;8.73;;;5.80;;
70908;SDS011;58554;52.006;5.926;2023-06-10T01:56:05;8.73;;;6.23;;
70908;SDS011;58554;52.006;5.926;2023-06-10T01:58:32;11.70;;;6.28;;
70908;SDS011;58554;52.006;5.926;2023-06-10T02:00:58;8.97;;;5.70;;
70908;SDS011;58554;52.006;5.926;2023-06-10T02:03:25;10.90;;;6.43;;
70908;SDS011;58554;52.006;5.926;2023-06-10T02:05:51;9.60;;;5.90;;
70908;SDS011;58554;52.006;5.926;2023-06-10T02:08:18;10.73;;;5.90;;
70908;SDS011;58554;52.006;5.926;2023-06-10T02:10:47;9.53;;;6.17;;
70908;SDS011;58554;52.006;5.926;2023-06-10T02:13:14;10.07;;;6.10;;
70908;SDS011;58554;52.006;5.926;2023-06-10T02:15:40;10.33;;;6.07;;
70908;SDS011;58554;52.006;5.926;2023-06-10T02:18:07;8.20;;;5.97;;
70908;SDS011;58554;52.006;5.926;2023-06-10T02:20:33;8.93;;;5.57;;
70908;SDS011;58554;52.006;5.926;2023-06-10T02:23:00;9.13;;;6.10;;
70908;SDS011;58554;52.006;5.926;2023-06-10T02:25:26;9.00;;;5.90;;
70908;SDS011;58554;52.006;5.926;2023-06-10T02:27:55;8.73;;;6.28;;
70908;SDS011;58554;52.006;5.926;2023-06-10T02:30:22;9.13;;;5.67;;
70908;SDS011;58554;52.006;5.926;2023-06-10T02:32:48;9.27;;;6.15;;
70908;SDS011;58554;52.006;5.926;2023-06-10T02:35:15;9.70;;;5.63;;
70908;SDS011;58554;52.006;5.926;2023-06-10T02:37:42;8.80;;;5.72;;
70908;SDS011;58554;52.006;5.926;2023-06-10T02:40:09;9.77;;;5.93;;
70908;SDS011;58554;52.006;5.926;2023-06-10T02:42:37;9.23;;;5.82;;
70908;SDS011;58554;52.006;5.926;2023-06-10T02:45:07;7.70;;;5.57;;
70908;SDS011;58554;52.006;5.926;2023-06-10T02:47:34;10.15;;;6.10;;
70908;SDS011;58554;52.006;5.926;2023-06-10T02:50:03;8.57;;;5.47;;
70908;SDS011;58554;52.006;5.926;2023-06-10T02:52:30;10.77;;;6.05;;
70908;SDS011;58554;52.006;5.926;2023-06-10T02:54:56;10.27;;;5.90;;
70908;SDS011;58554;52.006;5.926;2023-06-10T02:57:23;9.93;;;5.53;;
70908;SDS011;58554;52.006;5.926;2023-06-10T02:59:49;11.20;;;6.03;;
70908;SDS011;58554;52.006;5.926;2023-06-10T03:02:18;7.50;;;5.57;;
70908;SDS011;58554;52.006;5.926;2023-06-10T03:04:45;12.00;;;6.27;;
70908;SDS011;58554;52.006;5.926;2023-06-10T03:07:11;8.85;;;5.63;;
70908;SDS011;58554;52.006;5.926;2023-06-10T03:09:38;10.97;;;5.93;;
70908;SDS011;58554;52.006;5.926;2023-06-10T03:12:05;8.85;;;5.68;;
70908;SDS011;58554;52.006;5.926;2023-06-10T03:14:34;13.63;;;6.40;;
70908;SDS011;58554;52.006;5.926;2023-06-10T03:17:00;10.77;;;6.27;;
70908;SDS011;58554;52.006;5.926;2023-06-10T03:19:29;9.27;;;6.10;;
70908;SDS011;58554;52.006;5.926;2023-06-10T03:21:58;10.40;;;5.80;;
70908;SDS011;58554;52.006;5.926;2023-06-10T03:24:35;9.37;;;5.90;;
70908;SDS011;58554;52.006;5.926;2023-06-10T03:27:01;10.23;;;6.03;;
70908;SDS011;58554;52.006;5.926;2023-06-10T03:29:28;9.30;;;5.83;;
70908;SDS011;58554;52.006;5.926;2023-06-10T03:31:54;10.82;;;6.25;;
70908;SDS011;58554;52.006;5.926;2023-06-10T03:34:21;12.45;;;5.95;;
70908;SDS011;58554;52.006;5.926;2023-06-10T03:36:50;9.55;;;5.85;;
70908;SDS011;58554;52.006;5.926;2023-06-10T03:39:16;10.27;;;6.20;;
70908;SDS011;58554;52.006;5.926;2023-06-10T03:41:43;9.40;;;6.00;;
70908;SDS011;58554;52.006;5.926;2023-06-10T03:44:09;10.83;;;6.23;;
70908;SDS011;58554;52.006;5.926;2023-06-10T03:46:36;11.37;;;6.30;;
70908;SDS011;58554;52.006;5.926;2023-06-10T03:49:02;9.45;;;6.05;;
70908;SDS011;58554;52.006;5.926;2023-06-10T03:51:29;10.55;;;5.90;;
70908;SDS011;58554;52.006;5.926;2023-06-10T03:53:58;10.60;;;6.18;;
70908;SDS011;58554;52.006;5.926;2023-06-10T03:56:25;9.77;;;5.83;;
70908;SDS011;58554;52.006;5.926;2023-06-10T03:58:51;11.70;;;6.00;;
70908;SDS011;58554;52.006;5.926;2023-06-10T04:01:17;10.48;;;5.85;;
70908;SDS011;58554;52.006;5.926;2023-06-10T04:03:44;9.43;;;5.90;;
70908;SDS011;58554;52.006;5.926;2023-06-10T04:06:10;11.68;;;6.22;;
70908;SDS011;58554;52.006;5.926;2023-06-10T04:08:37;10.55;;;6.28;;
70908;SDS011;58554;52.006;5.926;2023-06-10T04:11:06;9.47;;;5.67;;
70908;SDS011;58554;52.006;5.926;2023-06-10T04:13:32;9.27;;;5.73;;
70908;SDS011;58554;52.006;5.926;2023-06-10T04:15:59;8.33;;;5.50;;
70908;SDS011;58554;52.006;5.926;2023-06-10T04:18:25;11.32;;;5.82;;
70908;SDS011;58554;52.006;5.926;2023-06-10T04:20:52;10.20;;;5.97;;
70908;SDS011;58554;52.006;5.926;2023-06-10T04:23:18;10.70;;;5.50;;
70908;SDS011;58554;52.006;5.926;2023-06-10T04:25:45;9.77;;;5.80;;
70908;SDS011;58554;52.006;5.926;2023-06-10T04:28:14;8.57;;;5.90;;
70908;SDS011;58554;52.006;5.926;2023-06-10T04:30:40;9.07;;;6.00;;
70908;SDS011;58554;52.006;5.926;2023-06-10T04:33:07;9.70;;;5.73;;
70908;SDS011;58554;52.006;5.926;2023-06-10T04:35:33;9.57;;;5.55;;
70908;SDS011;58554;52.006;5.926;2023-06-10T04:37:59;13.07;;;5.30;;
70908;SDS011;58554;52.006;5.926;2023-06-10T04:40:26;9.40;;;5.40;;
70908;SDS011;58554;52.006;5.926;2023-06-10T04:42:52;9.30;;;5.80;;
70908;SDS011;58554;52.006;5.926;2023-06-10T04:45:21;10.73;;;5.70;;
70908;SDS011;58554;52.006;5.926;2023-06-10T04:47:48;10.03;;;5.60;;
70908;SDS011;58554;52.006;5.926;2023-06-10T04:50:14;10.07;;;6.22;;
70908;SDS011;58554;52.006;5.926;2023-06-10T04:52:41;9.40;;;5.57;;
70908;SDS011;58554;52.006;5.926;2023-06-10T04:55:08;11.55;;;5.80;;
70908;SDS011;58554;52.006;5.926;2023-06-10T04:57:34;11.03;;;5.80;;
70908;SDS011;58554;52.006;5.926;2023-06-10T05:00:01;9.23;;;5.60;;
70908;SDS011;58554;52.006;5.926;2023-06-10T05:02:31;9.07;;;5.53;;
70908;SDS011;58554;52.006;5.926;2023-06-10T05:04:57;11.40;;;5.60;;
70908;SDS011;58554;52.006;5.926;2023-06-10T05:07:23;10.27;;;6.00;;
70908;SDS011;58554;52.006;5.926;2023-06-10T05:09:50;10.73;;;6.00;;
70908;SDS011;58554;52.006;5.926;2023-06-10T05:12:17;10.03;;;5.57;;
70908;SDS011;58554;52.006;5.926;2023-06-10T05:14:43;10.80;;;5.67;;
70908;SDS011;58554;52.006;5.926;2023-06-10T05:17:09;9.68;;;5.53;;
70908;SDS011;58554;52.006;5.926;2023-06-10T05:19:39;10.20;;;5.65;;
70908;SDS011;58554;52.006;5.926;2023-06-10T05:22:05;9.60;;;4.97;;
70908;SDS011;58554;52.006;5.926;2023-06-10T05:24:31;11.00;;;5.85;;
70908;SDS011;58554;52.006;5.926;2023-06-10T05:26:58;7.95;;;5.05;;
70908;SDS011;58554;52.006;5.926;2023-06-10T05:29:24;9.57;;;5.63;;
70908;SDS011;58554;52.006;5.926;2023-06-10T05:31:51;9.90;;;5.90;;
70908;SDS011;58554;52.006;5.926;2023-06-10T05:34:18;8.77;;;5.65;;
70908;SDS011;58554;52.006;5.926;2023-06-10T05:36:47;9.52;;;5.53;;
70908;SDS011;58554;52.006;5.926;2023-06-10T05:39:13;9.20;;;5.55;;
70908;SDS011;58554;52.006;5.926;2023-06-10T05:41:40;9.83;;;5.43;;
70908;SDS011;58554;52.006;5.926;2023-06-10T05:44:06;9.57;;;5.65;;
70908;SDS011;58554;52.006;5.926;2023-06-10T05:46:33;11.43;;;5.80;;
70908;SDS011;58554;52.006;5.926;2023-06-10T05:49:00;12.73;;;5.70;;
70908;SDS011;58554;52.006;5.926;2023-06-10T05:51:26;9.63;;;5.32;;
70908;SDS011;58554;52.006;5.926;2023-06-10T05:53:55;9.13;;;5.55;;
70908;SDS011;58554;52.006;5.926;2023-06-10T05:56:21;10.10;;;5.53;;
70908;SDS011;58554;52.006;5.926;2023-06-10T05:58:49;8.23;;;5.30;;
70908;SDS011;58554;52.006;5.926;2023-06-10T06:01:15;8.75;;;5.60;;
70908;SDS011;58554;52.006;5.926;2023-06-10T06:03:42;9.57;;;5.50;;
70908;SDS011;58554;52.006;5.926;2023-06-10T06:06:08;11.35;;;5.68;;
70908;SDS011;58554;52.006;5.926;2023-06-10T06:08:35;9.87;;;5.80;;
70908;SDS011;58554;52.006;5.926;2023-06-10T06:11:04;8.57;;;4.97;;
70908;SDS011;58554;52.006;5.926;2023-06-10T06:13:30;8.95;;;5.28;;
70908;SDS011;58554;52.006;5.926;2023-06-10T06:15:57;9.63;;;5.93;;
70908;SDS011;58554;52.006;5.926;2023-06-10T06:18:23;9.00;;;5.38;;
70908;SDS011;58554;52.006;5.926;2023-06-10T06:20:50;8.52;;;5.32;;
70908;SDS011;58554;52.006;5.926;2023-06-10T06:23:16;10.03;;;5.97;;
70908;SDS011;58554;52.006;5.926;2023-06-10T06:25:43;8.83;;;5.43;;
70908;SDS011;58554;52.006;5.926;2023-06-10T06:28:12;8.60;;;5.67;;
70908;SDS011;58554;52.006;5.926;2023-06-10T06:30:38;9.43;;;5.33;;
70908;SDS011;58554;52.006;5.926;2023-06-10T06:33:05;9.37;;;5.50;;
70908;SDS011;58554;52.006;5.926;2023-06-10T06:35:32;7.93;;;5.13;;
70908;SDS011;58554;52.006;5.926;2023-06-10T06:37:59;9.05;;;4.95;;
70908;SDS011;58554;52.006;5.926;2023-06-10T06:40:26;8.73;;;5.20;;
70908;SDS011;58554;52.006;5.926;2023-06-10T06:42:52;9.53;;;5.70;;
70908;SDS011;58554;52.006;5.926;2023-06-10T06:45:21;10.45;;;5.85;;
70908;SDS011;58554;52.006;5.926;2023-06-10T06:47:48;8.70;;;5.38;;
70908;SDS011;58554;52.006;5.926;2023-06-10T06:50:15;9.33;;;5.60;;
70908;SDS011;58554;52.006;5.926;2023-06-10T06:52:41;10.02;;;5.13;;
70908;SDS011;58554;52.006;5.926;2023-06-10T06:55:08;8.63;;;5.65;;
70908;SDS011;58554;52.006;5.926;2023-06-10T06:57:34;7.57;;;5.45;;
70908;SDS011;58554;52.006;5.926;2023-06-10T07:00:01;8.50;;;5.75;;
70908;SDS011;58554;52.006;5.926;2023-06-10T07:02:31;7.90;;;5.20;;
70908;SDS011;58554;52.006;5.926;2023-06-10T07:04:58;11.23;;;5.47;;
70908;SDS011;58554;52.006;5.926;2023-06-10T07:07:24;8.47;;;5.33;;
70908;SDS011;58554;52.006;5.926;2023-06-10T07:09:51;8.50;;;5.20;;
70908;SDS011;58554;52.006;5.926;2023-06-10T07:12:18;11.93;;;6.00;;
70908;SDS011;58554;52.006;5.926;2023-06-10T07:14:44;8.50;;;5.67;;
70908;SDS011;58554;52.006;5.926;2023-06-10T07:17:11;9.57;;;5.77;;
70908;SDS011;58554;52.006;5.926;2023-06-10T07:19:40;7.90;;;5.32;;
70908;SDS011;58554;52.006;5.926;2023-06-10T07:22:07;8.60;;;5.43;;
70908;SDS011;58554;52.006;5.926;2023-06-10T07:24:33;8.00;;;5.18;;
70908;SDS011;58554;52.006;5.926;2023-06-10T07:26:59;10.35;;;5.70;;
70908;SDS011;58554;52.006;5.926;2023-06-10T07:29:26;8.20;;;5.30;;
70908;SDS011;58554;52.006;5.926;2023-06-10T07:31:52;7.43;;;4.97;;
70908;SDS011;58554;52.006;5.926;2023-06-10T07:34:19;9.88;;;5.43;;
70908;SDS011;58554;52.006;5.926;2023-06-10T07:36:48;7.90;;;5.40;;
70908;SDS011;58554;52.006;5.926;2023-06-10T07:39:14;11.27;;;5.80;;
70908;SDS011;58554;52.006;5.926;2023-06-10T07:41:41;9.00;;;5.10;;
70908;SDS011;58554;52.006;5.926;2023-06-10T07:44:07;7.57;;;5.07;;
70908;SDS011;58554;52.006;5.926;2023-06-10T07:46:34;7.70;;;5.30;;
70908;SDS011;58554;52.006;5.926;2023-06-10T07:49:00;8.30;;;5.30;;
70908;SDS011;58554;52.006;5.926;2023-06-10T07:51:27;7.27;;;5.20;;
70908;SDS011;58554;52.006;5.926;2023-06-10T07:53:56;8.20;;;5.03;;
70908;SDS011;58554;52.006;5.926;2023-06-10T07:56:22;7.10;;;5.20;;
70908;SDS011;58554;52.006;5.926;2023-06-10T07:58:49;7.30;;;4.97;;
70908;SDS011;58554;52.006;5.926;2023-06-10T08:01:15;9.50;;;5.50;;
70908;SDS011;58554;52.006;5.926;2023-06-10T08:03:42;11.33;;;5.93;;
70908;SDS011;58554;52.006;5.926;2023-06-10T08:06:08;8.20;;;5.23;;
70908;SDS011;58554;52.006;5.926;2023-06-10T08:08:35;6.37;;;4.90;;
70908;SDS011;58554;52.006;5.926;2023-06-10T08:11:04;10.35;;;5.20;;
70908;SDS011;58554;52.006;5.926;2023-06-10T08:13:31;8.53;;;5.23;;
70908;SDS011;58554;52.006;5.926;2023-06-10T08:15:57;7.33;;;5.33;;
70908;SDS011;58554;52.006;5.926;2023-06-10T08:18:24;8.02;;;5.22;;
70908;SDS011;58554;52.006;5.926;2023-06-10T08:20:50;7.73;;;5.10;;
70908;SDS011;58554;52.006;5.926;2023-06-10T08:23:17;7.83;;;5.20;;
70908;SDS011;58554;52.006;5.926;2023-06-10T08:25:43;9.73;;;5.30;;
70908;SDS011;58554;52.006;5.926;2023-06-10T08:28:12;7.57;;;5.30;;
70908;SDS011;58554;52.006;5.926;2023-06-10T08:30:39;9.93;;;5.50;;
70908;SDS011;58554;52.006;5.926;2023-06-10T08:33:05;7.43;;;5.55;;
70908;SDS011;58554;52.006;5.926;2023-06-10T08:35:32;8.45;;;5.57;;
70908;SDS011;58554;52.006;5.926;2023-06-10T08:37:58;8.03;;;5.80;;
70908;SDS011;58554;52.006;5.926;2023-06-10T08:40:25;9.07;;;5.70;;
70908;SDS011;58554;52.006;5.926;2023-06-10T08:42:53;8.57;;;5.30;;
70908;SDS011;58554;52.006;5.926;2023-06-10T08:45:34;8.77;;;5.63;;
70908;SDS011;58554;52.006;5.926;2023-06-10T08:48:02;7.22;;;5.03;;
70908;SDS011;58554;52.006;5.926;2023-06-10T08:50:30;8.53;;;5.27;;
70908;SDS011;58554;52.006;5.926;2023-06-10T08:52:59;8.73;;;5.77;;
70908;SDS011;58554;52.006;5.926;2023-06-10T08:55:29;8.27;;;5.70;;
70908;SDS011;58554;52.006;5.926;2023-06-10T08:57:59;9.13;;;5.60;;
70908;SDS011;58554;52.006;5.926;2023-06-10T09:00:26;7.90;;;5.80;;
70908;SDS011;58554;52.006;5.926;2023-06-10T09:02:58;9.53;;;5.77;;
70908;SDS011;58554;52.006;5.926;2023-06-10T09:05:26;8.07;;;5.80;;
70908;SDS011;58554;52.006;5.926;2023-06-10T09:07:54;7.57;;;5.65;;
70908;SDS011;58554;52.006;5.926;2023-06-10T09:10:23;7.63;;;5.70;;
70908;SDS011;58554;52.006;5.926;2023-06-10T09:12:50;8.43;;;5.70;;
70908;SDS011;58554;52.006;5.926;2023-06-10T09:15:17;8.68;;;5.45;;
70908;SDS011;58554;52.006;5.926;2023-06-10T09:17:43;8.13;;;5.57;;
70908;SDS011;58554;52.006;5.926;2023-06-10T09:20:13;7.93;;;5.53;;
70908;SDS011;58554;52.006;5.926;2023-06-10T09:22:40;8.57;;;5.80;;
70908;SDS011;58554;52.006;5.926;2023-06-10T09:25:09;8.67;;;6.30;;
70908;SDS011;58554;52.006;5.926;2023-06-10T09:27:44;8.02;;;5.40;;
70908;SDS011;58554;52.006;5.926;2023-06-10T09:30:13;9.45;;;5.53;;
70908;SDS011;58554;52.006;5.926;2023-06-10T09:32:52;7.00;;;5.40;;
70908;SDS011;58554;52.006;5.926;2023-06-10T09:35:22;7.57;;;5.78;;
70908;SDS011;58554;52.006;5.926;2023-06-10T09:37:51;8.30;;;6.00;;
70908;SDS011;58554;52.006;5.926;2023-06-10T09:40:19;9.35;;;5.63;;
70908;SDS011;58554;52.006;5.926;2023-06-10T09:42:46;7.60;;;5.63;;
70908;SDS011;58554;52.006;5.926;2023-06-10T09:45:19;10.13;;;5.60;;
70908;SDS011;58554;52.006;5.926;2023-06-10T09:47:45;7.47;;;5.60;;
70908;SDS011;58554;52.006;5.926;2023-06-10T09:50:12;8.47;;;5.13;;
70908;SDS011;58554;52.006;5.926;2023-06-10T09:52:42;7.40;;;5.23;;
70908;SDS011;58554;52.006;5.926;2023-06-10T09:55:11;7.57;;;5.10;;
70908;SDS011;58554;52.006;5.926;2023-06-10T09:57:38;7.77;;;5.57;;
70908;SDS011;58554;52.006;5.926;2023-06-10T10:00:05;8.73;;;5.78;;
70908;SDS011;58554;52.006;5.926;2023-06-10T10:02:36;7.87;;;5.53;;
70908;SDS011;58554;52.006;5.926;2023-06-10T10:05:12;7.10;;;5.05;;
70908;SDS011;58554;52.006;5.926;2023-06-10T10:07:43;7.47;;;5.63;;
70908;SDS011;58554;52.006;5.926;2023-06-10T10:10:11;7.44;;;5.12;;
70908;SDS011;58554;52.006;5.926;2023-06-10T10:12:39;8.27;;;4.80;;
70908;SDS011;58554;52.006;5.926;2023-06-10T10:15:08;8.13;;;5.43;;
70908;SDS011;58554;52.006;5.926;2023-06-10T10:17:38;7.97;;;5.33;;
70908;SDS011;58554;52.006;5.926;2023-06-10T10:20:11;8.48;;;5.30;;
70908;SDS011;58554;52.006;5.926;2023-06-10T10:22:46;7.30;;;5.25;;
70908;SDS011;58554;52.006;5.926;2023-06-10T10:25:16;8.40;;;5.30;;
70908;SDS011;58554;52.006;5.926;2023-06-10T10:27:51;6.50;;;4.87;;
70908;SDS011;58554;52.006;5.926;2023-06-10T10:30:22;6.97;;;4.73;;
70908;SDS011;58554;52.006;5.926;2023-06-10T10:32:52;8.70;;;5.60;;
70908;SDS011;58554;52.006;5.926;2023-06-10T10:35:25;7.65;;;4.65;;
70908;SDS011;58554;52.006;5.926;2023-06-10T10:37:55;8.38;;;4.72;;
70908;SDS011;58554;52.006;5.926;2023-06-10T10:40:22;6.20;;;4.53;;
70908;SDS011;58554;52.006;5.926;2023-06-10T10:42:51;6.10;;;4.65;;
70908;SDS011;58554;52.006;5.926;2023-06-10T10:45:19;6.03;;;4.63;;
70908;SDS011;58554;52.006;5.926;2023-06-10T10:47:51;6.82;;;4.68;;
70908;SDS011;58554;52.006;5.926;2023-06-10T10:50:20;7.70;;;4.90;;
70908;SDS011;58554;52.006;5.926;2023-06-10T10:52:51;7.83;;;4.63;;
70908;SDS011;58554;52.006;5.926;2023-06-10T10:55:25;6.53;;;4.78;;
70908;SDS011;58554;52.006;5.926;2023-06-10T10:57:53;7.25;;;4.88;;
70908;SDS011;58554;52.006;5.926;2023-06-10T11:00:25;7.37;;;4.87;;
70908;SDS011;58554;52.006;5.926;2023-06-10T11:02:54;8.20;;;4.60;;
70908;SDS011;58554;52.006;5.926;2023-06-10T11:05:32;7.77;;;4.80;;
70908;SDS011;58554;52.006;5.926;2023-06-10T11:08:07;6.78;;;4.68;;
70908;SDS011;58554;52.006;5.926;2023-06-10T11:10:35;10.57;;;5.13;;
70908;SDS011;58554;52.006;5.926;2023-06-10T11:13:07;7.93;;;4.85;;
70908;SDS011;58554;52.006;5.926;2023-06-10T11:15:38;6.57;;;4.67;;
70908;SDS011;58554;52.006;5.926;2023-06-10T11:18:12;8.10;;;4.80;;
70908;SDS011;58554;52.006;5.926;2023-06-10T11:20:51;7.65;;;4.82;;
70908;SDS011;58554;52.006;5.926;2023-06-10T11:23:32;6.63;;;4.63;;
70908;SDS011;58554;52.006;5.926;2023-06-10T11:26:10;6.75;;;4.70;;
70908;SDS011;58554;52.006;5.926;2023-06-10T11:28:39;9.15;;;5.13;;
70908;SDS011;58554;52.006;5.926;2023-06-10T11:31:08;8.97;;;5.10;;
70908;SDS011;58554;52.006;5.926;2023-06-10T11:33:44;6.40;;;5.03;;
70908;SDS011;58554;52.006;5.926;2023-06-10T11:36:13;6.65;;;5.13;;
70908;SDS011;58554;52.006;5.926;2023-06-10T11:38:42;9.25;;;5.00;;
70908;SDS011;58554;52.006;5.926;2023-06-10T11:41:10;7.30;;;5.00;;
70908;SDS011;58554;52.006;5.926;2023-06-10T11:43:37;7.60;;;5.32;;
70908;SDS011;58554;52.006;5.926;2023-06-10T11:46:09;8.70;;;5.07;;
70908;SDS011;58554;52.006;5.926;2023-06-10T11:48:35;7.78;;;4.93;;
70908;SDS011;58554;52.006;5.926;2023-06-10T11:51:05;8.27;;;5.90;;
70908;SDS011;58554;52.006;5.926;2023-06-10T11:53:32;7.87;;;5.37;;
70908;SDS011;58554;52.006;5.926;2023-06-10T11:56:02;7.93;;;5.30;;
70908;SDS011;58554;52.006;5.926;2023-06-10T11:58:29;7.13;;;5.17;;
70908;SDS011;58554;52.006;5.926;2023-06-10T12:00:56;8.53;;;5.60;;
70908;SDS011;58554;52.006;5.926;2023-06-10T12:03:22;8.20;;;5.97;;
70908;SDS011;58554;52.006;5.926;2023-06-10T12:05:55;7.73;;;6.00;;
70908;SDS011;58554;52.006;5.926;2023-06-10T12:08:23;7.13;;;5.72;;
70908;SDS011;58554;52.006;5.926;2023-06-10T12:10:50;8.77;;;5.97;;
70908;SDS011;58554;52.006;5.926;2023-06-10T12:13:19;8.90;;;6.27;;
70908;SDS011;58554;52.006;5.926;2023-06-10T12:15:47;8.60;;;6.10;;
70908;SDS011;58554;52.006;5.926;2023-06-10T12:18:16;7.30;;;5.93;;
70908;SDS011;58554;52.006;5.926;2023-06-10T12:20:43;11.93;;;6.17;;
70908;SDS011;58554;52.006;5.926;2023-06-10T12:23:10;7.55;;;5.80;;
70908;SDS011;58554;52.006;5.926;2023-06-10T12:25:37;7.53;;;5.68;;
70908;SDS011;58554;52.006;5.926;2023-06-10T12:28:05;8.87;;;5.33;;
70908;SDS011;58554;52.006;5.926;2023-06-10T12:30:34;7.00;;;5.75;;
70908;SDS011;58554;52.006;5.926;2023-06-10T12:33:00;7.33;;;5.53;;
70908;SDS011;58554;52.006;5.926;2023-06-10T12:35:27;8.38;;;5.65;;
70908;SDS011;58554;52.006;5.926;2023-06-10T12:37:54;8.23;;;6.17;;
70908;SDS011;58554;52.006;5.926;2023-06-10T12:40:25;9.27;;;5.35;;
70908;SDS011;58554;52.006;5.926;2023-06-10T12:42:53;8.00;;;5.83;;
70908;SDS011;58554;52.006;5.926;2023-06-10T12:45:26;8.43;;;6.07;;
70908;SDS011;58554;52.006;5.926;2023-06-10T12:48:03;7.80;;;6.07;;
70908;SDS011;58554;52.006;5.926;2023-06-10T12:50:31;8.03;;;6.07;;
70908;SDS011;58554;52.006;5.926;2023-06-10T12:52:58;9.70;;;6.30;;
70908;SDS011;58554;52.006;5.926;2023-06-10T12:55:25;7.83;;;6.07;;
70908;SDS011;58554;52.006;5.926;2023-06-10T12:57:51;7.93;;;5.60;;
70908;SDS011;58554;52.006;5.926;2023-06-10T13:00:19;8.90;;;6.43;;
70908;SDS011;58554;52.006;5.926;2023-06-10T13:02:45;9.00;;;6.20;;
70908;SDS011;58554;52.006;5.926;2023-06-10T13:05:14;8.33;;;6.30;;
70908;SDS011;58554;52.006;5.926;2023-06-10T13:07:41;10.27;;;6.33;;
70908;SDS011;58554;52.006;5.926;2023-06-10T13:10:08;10.07;;;6.88;;
70908;SDS011;58554;52.006;5.926;2023-06-10T13:12:35;8.50;;;6.57;;
70908;SDS011;58554;52.006;5.926;2023-06-10T13:15:02;8.32;;;6.25;;
70908;SDS011;58554;52.006;5.926;2023-06-10T13:17:31;8.60;;;5.93;;
70908;SDS011;58554;52.006;5.926;2023-06-10T13:19:57;9.03;;;6.50;;
70908;SDS011;58554;52.006;5.926;2023-06-10T13:22:26;9.38;;;6.07;;
70908;SDS011;58554;52.006;5.926;2023-06-10T13:24:53;7.20;;;5.80;;
70908;SDS011;58554;52.006;5.926;2023-06-10T13:27:19;7.57;;;6.20;;
70908;SDS011;58554;52.006;5.926;2023-06-10T13:29:46;7.60;;;6.40;;
70908;SDS011;58554;52.006;5.926;2023-06-10T13:32:12;7.63;;;6.00;;
70908;SDS011;58554;52.006;5.926;2023-06-10T13:34:39;8.33;;;6.47;;
70908;SDS011;58554;52.006;5.926;2023-06-10T13:37:05;8.90;;;6.70;;
70908;SDS011;58554;52.006;5.926;2023-06-10T13:39:34;9.07;;;7.50;;
70908;SDS011;58554;52.006;5.926;2023-06-10T13:42:01;10.80;;;6.90;;
70908;SDS011;58554;52.006;5.926;2023-06-10T13:44:27;7.15;;;6.35;;
70908;SDS011;58554;52.006;5.926;2023-06-10T13:46:53;8.70;;;6.63;;
70908;SDS011;58554;52.006;5.926;2023-06-10T13:49:20;8.18;;;6.90;;
70908;SDS011;58554;52.006;5.926;2023-06-10T13:51:46;9.35;;;6.43;;
70908;SDS011;58554;52.006;5.926;2023-06-10T13:54:13;9.00;;;6.67;;
70908;SDS011;58554;52.006;5.926;2023-06-10T13:56:43;7.87;;;6.30;;
70908;SDS011;58554;52.006;5.926;2023-06-10T13:59:09;8.47;;;6.97;;
70908;SDS011;58554;52.006;5.926;2023-06-10T14:01:35;8.53;;;6.97;;
70908;SDS011;58554;52.006;5.926;2023-06-10T14:04:02;8.48;;;7.05;;
70908;SDS011;58554;52.006;5.926;2023-06-10T14:06:29;8.73;;;6.50;;
70908;SDS011;58554;52.006;5.926;2023-06-10T14:08:56;8.83;;;7.10;;
70908;SDS011;58554;52.006;5.926;2023-06-10T14:11:22;7.90;;;7.10;;
70908;SDS011;58554;52.006;5.926;2023-06-10T14:13:51;9.10;;;7.33;;
70908;SDS011;58554;52.006;5.926;2023-06-10T14:16:18;8.88;;;7.25;;
70908;SDS011;58554;52.006;5.926;2023-06-10T14:18:44;9.60;;;7.35;;
70908;SDS011;58554;52.006;5.926;2023-06-10T14:21:10;7.47;;;6.57;;
70908;SDS011;58554;52.006;5.926;2023-06-10T14:23:37;7.63;;;6.73;;
70908;SDS011;58554;52.006;5.926;2023-06-10T14:26:03;8.48;;;6.85;;
70908;SDS011;58554;52.006;5.926;2023-06-10T14:28:30;8.87;;;6.80;;
70908;SDS011;58554;52.006;5.926;2023-06-10T14:30:59;8.63;;;6.87;;
70908;SDS011;58554;52.006;5.926;2023-06-10T14:33:25;8.93;;;6.93;;
70908;SDS011;58554;52.006;5.926;2023-06-10T14:35:52;7.38;;;6.25;;
70908;SDS011;58554;52.006;5.926;2023-06-10T14:38:18;10.27;;;7.33;;
70908;SDS011;58554;52.006;5.926;2023-06-10T14:40:45;8.93;;;6.80;;
70908;SDS011;58554;52.006;5.926;2023-06-10T14:43:11;8.93;;;7.17;;
70908;SDS011;58554;52.006;5.926;2023-06-10T14:45:38;8.47;;;7.20;;
70908;SDS011;58554;52.006;5.926;2023-06-10T14:48:08;8.30;;;6.90;;
70908;SDS011;58554;52.006;5.926;2023-06-10T14:50:35;9.53;;;6.57;;